Time;durP1;ratioP1;P1;durP2;ratioP2;P2;SDS_P1;SDS_P2;PMS_P1;PMS_P2;Temp;Humidity;BMP_temperature;BMP_pressure;BME280_temperature;BME280_humidity;BME280_pressure;Samples;Min_cycle;Max_cycle;Signal;HPM_P1;HPM_P2
2022/06/02 00:00:06;;;;;;;0.70;0.57;;;12.30;1.40;;;13.42;100.00;95415.09;618949;226;32142;-75
2022/06/02 00:03:00;;;;;;;0.70;0.40;;;12.30;1.40;;;13.37;100.00;95418.72;646937;212;42676;-76
2022/06/02 00:05:58;;;;;;;0.90;0.60;;;12.40;1.40;;;13.33;100.00;95424.03;645157;216;41712;-75
2022/06/02 00:08:44;;;;;;;0.70;0.45;;;12.30;1.40;;;13.26;100.00;95421.36;643096;212;31761;-75
2022/06/02 00:11:45;;;;;;;1.08;0.50;;;12.20;1.40;;;13.12;100.00;95423.78;642255;216;32542;-76
2022/06/02 00:14:38;;;;;;;3.60;0.60;;;11.90;1.40;;;12.99;100.00;95426.41;647591;216;31481;-76
2022/06/02 00:17:44;;;;;;;0.77;0.77;;;11.80;1.40;;;12.93;100.00;95425.50;646164;212;41850;-76
2022/06/02 00:20:46;;;;;;;1.67;0.60;;;11.80;1.40;;;12.92;100.00;95432.62;645311;212;40856;-76
2022/06/02 00:23:49;;;;;;;0.80;0.50;;;11.90;1.40;;;12.95;100.00;95432.12;618072;226;31828;-75
2022/06/02 00:26:53;;;;;;;0.95;0.68;;;12.10;1.40;;;12.94;100.00;95444.67;646740;216;42761;-75
2022/06/02 00:29:57;;;;;;;0.50;0.40;;;12.10;1.40;;;12.90;100.00;95445.03;647358;216;32071;-75
2022/06/02 00:33:01;;;;;;;1.00;0.60;;;12.00;1.40;;;12.83;100.00;95449.09;645806;216;31499;-76
2022/06/02 00:35:53;;;;;;;0.50;0.40;;;11.80;1.40;;;12.77;100.00;95451.60;646394;216;31713;-75
2022/06/02 00:38:35;;;;;;;0.60;0.40;;;11.80;1.40;;;12.72;100.00;95456.27;646833;216;42099;-76
2022/06/02 00:44:05;;;;;;;0.62;0.55;;;11.50;1.40;;;12.50;100.00;95455.52;647023;216;31472;-75
2022/06/02 00:46:55;;;;;;;0.80;0.50;;;11.30;1.40;;;12.37;100.00;95457.33;647109;216;34477;-75
2022/06/02 00:49:39;;;;;;;0.73;0.40;;;11.20;1.40;;;12.23;100.00;95457.97;647903;215;31483;-75
2022/06/02 00:52:22;;;;;;;1.00;0.90;;;11.10;1.40;;;12.13;100.00;95456.80;645024;216;32558;-74
2022/06/02 01:00:42;;;;;;;0.88;0.50;;;11.00;1.40;;;12.01;100.00;95462.00;646972;216;31518;-74
2022/06/02 01:03:24;;;;;;;0.60;0.50;;;11.00;1.40;;;12.08;100.00;95465.10;646074;212;32090;-75
2022/06/02 01:06:29;;;;;;;1.30;0.60;;;11.10;1.40;;;11.96;100.00;95466.64;646440;212;31511;-75
2022/06/02 01:09:27;;;;;;;0.60;0.30;;;10.90;1.40;;;11.90;100.00;95470.38;641467;216;32254;-75
2022/06/02 01:12:52;;;;;;;1.00;0.60;;;11.00;1.40;;;12.01;100.00;95470.95;646451;212;31535;-75
2022/06/02 01:15:51;;;;;;;0.70;0.40;;;11.00;1.40;;;11.96;100.00;95472.21;647733;216;31492;-75
2022/06/02 01:18:52;;;;;;;0.50;0.40;;;11.10;1.40;;;12.09;100.00;95476.57;647398;212;31716;-75
2022/06/02 01:22:08;;;;;;;0.40;0.32;;;11.30;1.40;;;12.15;100.00;95468.55;646796;216;31485;-75
2022/06/02 01:24:55;;;;;;;0.80;0.80;;;11.40;1.40;;;12.17;100.00;95466.78;646972;212;32093;-75
2022/06/02 01:27:50;;;;;;;0.50;0.40;;;11.30;1.40;;;12.18;100.00;95469.12;646972;216;32069;-75
2022/06/02 01:30:45;;;;;;;0.90;0.50;;;11.30;1.40;;;12.20;100.00;95464.81;647900;216;32832;-75
2022/06/02 01:36:32;;;;;;;4.62;0.50;;;11.40;1.40;;;12.21;100.00;95465.66;619195;226;31951;-74
2022/06/02 01:41:53;;;;;;;1.10;0.43;;;11.40;1.40;;;12.31;100.00;95459.09;645887;216;31508;-74
2022/06/02 01:44:58;;;;;;;0.50;0.40;;;11.40;1.40;;;12.31;100.00;95459.30;647963;216;31641;-76
2022/06/02 01:47:40;;;;;;;0.70;0.40;;;11.40;1.40;;;12.31;100.00;95458.48;646860;216;31523;-76
2022/06/02 01:50:35;;;;;;;0.83;0.57;;;11.30;1.40;;;12.33;100.00;95462.08;645760;216;32022;-75
2022/06/02 01:56:20;;;;;;;0.80;0.50;;;11.50;1.40;;;12.47;100.00;95454.46;646422;216;31505;-75
2022/06/02 01:59:21;;;;;;;1.20;0.70;;;11.70;1.40;;;12.53;100.00;95457.87;646828;212;31513;-75
2022/06/02 02:02:12;;;;;;;0.60;0.50;;;11.70;1.40;;;12.58;100.00;95454.75;646050;216;31505;-75
2022/06/02 02:08:09;;;;;;;1.00;0.50;;;11.80;1.40;;;12.62;100.00;95462.64;647087;216;31600;-75
2022/06/02 02:11:01;;;;;;;0.50;0.40;;;11.80;1.40;;;12.62;100.00;95464.48;646460;216;36066;-75
2022/06/02 02:13:47;;;;;;;0.70;0.70;;;11.80;1.40;;;12.62;100.00;95472.75;647480;212;43159;-74
2022/06/02 02:16:35;;;;;;;0.80;0.50;;;11.70;1.40;;;12.61;100.00;95470.00;647594;216;31500;-75
2022/06/02 02:22:25;;;;;;;0.55;0.40;;;11.40;1.40;;;12.48;100.00;95470.17;646345;212;31494;-76
2022/06/02 02:28:05;;;;;;;0.62;0.62;;;11.10;1.40;;;12.33;100.00;95472.59;646893;212;31452;-75
2022/06/02 02:36:03;;;;;;;0.50;0.50;;;10.90;1.40;;;12.24;100.00;95465.36;647656;216;31505;-75
2022/06/02 02:39:02;;;;;;;1.10;0.57;;;11.30;1.40;;;12.21;100.00;95464.12;647869;212;34792;-75
2022/06/02 02:44:24;;;;;;;0.90;0.68;;;11.30;1.40;;;12.34;100.00;95459.40;647311;216;32088;-75
2022/06/02 02:47:15;;;;;;;0.60;0.40;;;11.50;1.40;;;12.41;100.00;95468.06;619291;222;33706;-76
2022/06/02 02:52:58;;;;;;;0.70;0.70;;;11.70;1.40;;;12.37;100.00;95473.97;646423;216;38849;-75
2022/06/02 02:55:42;;;;;;;1.90;0.90;;;11.30;1.40;;;12.33;100.00;95466.97;619508;226;31886;-75
2022/06/02 02:58:33;;;;;;;0.60;0.50;;;11.40;1.40;;;12.24;100.00;95474.54;646387;216;31475;-75
2022/06/02 03:01:21;;;;;;;0.70;0.50;;;11.10;1.40;;;12.16;100.00;95473.13;647203;216;31496;-74
2022/06/02 03:06:48;;;;;;;0.40;0.30;;;10.90;1.40;;;12.04;100.00;95477.55;647733;212;31490;-75
2022/06/02 03:09:38;;;;;;;0.50;0.30;;;10.90;1.40;;;11.91;100.00;95478.06;646069;216;32084;-75
2022/06/02 03:12:25;;;;;;;0.80;0.40;;;10.80;1.40;;;11.80;100.00;95476.00;645129;216;31638;-75
2022/06/02 03:18:06;;;;;;;1.02;0.60;;;10.50;1.40;;;11.59;100.00;95480.87;647350;216;32139;-75
2022/06/02 03:21:08;;;;;;;1.40;0.40;;;10.40;1.40;;;11.54;100.00;95482.58;647860;212;31484;-75
2022/06/02 03:24:10;;;;;;;1.40;0.60;;;10.40;1.40;;;11.53;100.00;95483.91;647287;216;31494;-75
2022/06/02 03:27:14;;;;;;;1.17;0.60;;;10.30;1.40;;;11.53;100.00;95492.11;646751;216;32747;-75
2022/06/02 03:30:09;;;;;;;0.70;0.60;;;10.30;1.40;;;11.52;100.00;95487.86;646229;216;31526;-75
2022/06/02 03:35:54;;;;;;;0.93;0.60;;;10.40;1.40;;;11.42;100.00;95480.84;645635;212;42185;-75
2022/06/02 03:38:42;;;;;;;0.60;0.50;;;10.30;1.40;;;11.43;100.00;95483.64;646977;216;31508;-75
2022/06/02 03:41:46;;;;;;;0.77;0.40;;;10.20;1.40;;;11.44;100.00;95483.02;646199;216;31540;-74
2022/06/02 03:44:33;;;;;;;0.90;0.80;;;10.20;1.40;;;11.46;100.00;95490.78;645885;216;31510;-75
2022/06/02 03:47:42;;;;;;;0.53;0.43;;;10.30;1.40;;;11.61;100.00;95487.73;646205;216;31510;-75
2022/06/02 03:50:47;;;;;;;0.50;0.50;;;10.60;1.40;;;11.77;100.00;95492.45;646201;216;31545;-75
2022/06/02 03:53:38;;;;;;;0.50;0.40;;;10.50;1.40;;;11.83;100.00;95496.67;645641;216;33512;-75
2022/06/02 03:56:28;;;;;;;3.10;0.50;;;10.60;1.40;;;11.85;100.00;95496.73;646943;212;31519;-75
2022/06/02 03:59:18;;;;;;;0.70;0.50;;;10.70;1.40;;;11.86;100.00;95506.65;646122;216;31530;-74
2022/06/02 04:02:02;;;;;;;1.50;0.60;;;10.80;1.40;;;11.92;100.00;95505.59;645987;216;31494;-75
2022/06/02 04:07:46;;;;;;;1.40;0.40;;;10.90;1.40;;;11.93;100.00;95507.57;646472;216;31490;-75
2022/06/02 04:10:34;;;;;;;1.00;0.50;;;10.90;1.40;;;11.95;100.00;95513.30;635392;212;31683;-75
2022/06/02 04:16:24;;;;;;;0.50;0.40;;;11.10;1.40;;;12.41;100.00;95521.83;640887;217;32999;-76
2022/06/02 04:22:15;;;;;;;3.70;0.40;;;11.30;1.40;;;12.63;100.00;95519.99;645851;212;31588;-74
2022/06/02 04:25:34;;;;;;;0.40;0.30;;;11.30;1.40;;;12.41;100.00;95523.99;646272;216;31624;-75
2022/06/02 04:28:17;;;;;;;1.40;0.50;;;11.20;1.40;;;12.66;100.00;95531.52;647680;216;31463;-75
2022/06/02 04:41:32;;;;;;;1.00;0.50;;;11.80;1.40;;;13.26;100.00;95544.33;647499;216;31503;-75
2022/06/02 04:44:27;;;;;;;0.40;0.30;;;11.90;1.40;;;13.51;100.00;95543.31;631533;217;42293;-76
2022/06/02 04:47:22;;;;;;;0.73;0.50;;;12.20;1.40;;;13.64;100.00;95533.05;646181;212;36441;-76
2022/06/02 04:52:52;;;;;;;0.70;0.40;;;12.30;1.40;;;13.79;100.00;95530.34;647253;216;31484;-75
2022/06/02 04:58:25;;;;;;;2.70;0.85;;;12.40;1.40;;;13.89;100.00;95538.51;618394;225;31813;-75
2022/06/02 05:01:15;;;;;;;0.60;0.50;;;12.50;1.40;;;13.92;100.00;95541.84;646479;216;31570;-75
2022/06/02 05:04:02;;;;;;;0.70;0.60;;;12.60;1.40;;;13.89;100.00;95539.81;645501;216;31500;-75
2022/06/02 05:07:03;;;;;;;0.90;0.70;;;12.60;1.40;;;13.96;100.00;95540.92;646892;216;31507;-74
2022/06/02 05:10:07;;;;;;;0.52;0.52;;;12.60;1.40;;;14.11;100.00;95540.77;638697;212;32645;-74
2022/06/02 05:13:06;;;;;;;0.90;0.70;;;12.80;1.40;;;14.16;100.00;95546.83;646034;212;31490;-74
2022/06/02 05:16:13;;;;;;;0.70;0.50;;;12.90;1.40;;;14.32;100.00;95547.33;647773;212;32249;-74
2022/06/02 05:21:55;;;;;;;1.00;0.80;;;13.10;1.40;;;14.63;100.00;95541.17;646884;216;31886;-74
2022/06/02 05:24:55;;;;;;;0.45;0.45;;;13.40;1.40;;;14.97;100.00;95550.62;645762;216;31505;-75
2022/06/02 05:27:48;;;;;;;2.17;0.70;;;13.70;1.40;;;15.07;100.00;95562.61;646504;216;31567;-74
2022/06/02 05:30:52;;;;;;;0.60;0.40;;;13.80;1.40;;;15.49;100.00;95561.98;646417;216;31486;-74
2022/06/02 05:41:55;;;;;;;0.80;0.80;;;14.50;1.40;;;16.10;100.00;95582.61;647029;216;31545;-74
2022/06/02 05:44:52;;;;;;;3.00;2.10;;;14.50;1.40;;;15.79;100.00;95587.44;645913;216;31612;-75
2022/06/02 05:47:42;;;;;;;1.45;1.10;;;14.20;1.40;;;15.79;100.00;95592.66;645565;216;31529;-74
2022/06/02 05:50:32;;;;;;;1.37;1.27;;;14.20;1.40;;;15.83;100.00;95597.45;647147;216;32115;-74
2022/06/02 05:56:26;;;;;;;2.30;1.27;;;14.30;1.40;;;15.84;100.00;95588.28;646566;216;31579;-73
2022/06/02 05:59:14;;;;;;;1.85;1.60;;;14.30;1.40;;;15.94;100.00;95584.92;646191;216;32146;-75
2022/06/02 06:02:25;;;;;;;1.50;1.40;;;14.20;1.40;;;15.66;100.00;95578.53;645981;212;31581;-75
2022/06/02 06:05:14;;;;;;;2.40;1.80;;;14.00;1.40;;;15.36;100.00;95575.18;646885;216;31615;-73
2022/06/02 06:08:05;;;;;;;3.87;1.67;;;13.60;1.40;;;15.15;100.00;95580.15;646395;216;31613;-75
2022/06/02 06:11:10;;;;;;;1.48;1.37;;;13.40;1.40;;;14.66;100.00;95580.69;645932;216;31611;-73
2022/06/02 06:14:03;;;;;;;1.40;1.30;;;13.20;1.40;;;14.79;100.00;95576.70;645075;216;31531;-73
2022/06/02 06:19:28;;;;;;;1.60;1.30;;;13.30;1.40;;;14.72;100.00;95568.66;645374;216;31669;-73
2022/06/02 06:22:32;;;;;;;1.95;1.15;;;13.60;1.40;;;14.91;100.00;95580.70;645560;212;31547;-73
2022/06/02 06:25:20;;;;;;;1.40;1.30;;;13.80;1.40;;;15.08;100.00;95590.36;645956;212;31576;-73
2022/06/02 06:28:14;;;;;;;2.10;1.80;;;13.90;1.40;;;15.23;100.00;95590.64;645639;212;31669;-74
2022/06/02 06:36:14;;;;;;;1.52;1.20;;;14.00;1.40;;;14.86;100.00;95599.80;646294;216;31597;-73
2022/06/02 06:39:13;;;;;;;2.33;1.83;;;14.10;1.40;;;15.32;100.00;95603.76;646319;216;31496;-73
2022/06/02 06:42:13;;;;;;;1.70;1.60;;;14.40;1.40;;;15.60;100.00;95604.70;618970;222;31861;-73
2022/06/02 06:44:58;;;;;;;2.17;1.85;;;14.80;1.40;;;15.95;100.00;95601.34;645482;216;31844;-73
2022/06/02 06:47:44;;;;;;;2.50;1.70;;;15.00;1.40;;;15.93;100.00;95598.91;647064;216;31591;-73
2022/06/02 06:50:41;;;;;;;2.40;2.20;;;14.80;1.40;;;16.02;100.00;95607.75;646167;216;32155;-73
2022/06/02 06:53:32;;;;;;;1.77;1.50;;;15.10;1.40;;;16.52;100.00;95606.03;646337;212;31603;-74
2022/06/02 06:56:40;;;;;;;2.00;1.80;;;15.20;1.40;;;16.62;100.00;95610.16;646325;216;31703;-74
2022/06/02 06:59:32;;;;;;;2.17;1.30;;;15.20;1.40;;;16.30;100.00;95618.30;647614;216;31479;-75
2022/06/02 07:02:47;;;;;;;2.20;2.00;;;15.10;1.40;;;16.50;100.00;95615.53;647038;212;31525;-74
2022/06/02 07:05:30;;;;;;;2.78;1.40;;;14.90;1.40;;;16.51;100.00;95624.54;646177;216;31559;-74
2022/06/02 07:08:12;;;;;;;1.48;1.37;;;15.20;1.40;;;16.57;100.00;95631.86;647554;216;31608;-74
2022/06/02 07:11:02;;;;;;;2.28;1.77;;;15.50;1.40;;;16.90;100.00;95636.59;647493;216;31913;-74
2022/06/02 07:13:46;;;;;;;2.50;2.00;;;15.50;1.40;;;17.07;100.00;95632.14;646021;216;31525;-73
2022/06/02 07:16:31;;;;;;;1.90;1.45;;;15.60;1.40;;;17.35;100.00;95638.45;647098;212;31840;-74
2022/06/02 07:22:02;;;;;;;2.00;1.67;;;16.60;1.40;;;18.39;100.00;95627.56;645767;216;31744;-74
2022/06/02 07:25:09;;;;;;;1.75;1.65;;;16.30;1.40;;;18.00;100.00;95629.94;646750;216;31532;-74
2022/06/02 07:27:51;;;;;;;2.07;1.80;;;15.90;1.40;;;18.01;100.00;95643.78;646869;212;31534;-75
2022/06/02 07:36:06;;;;;;;1.98;1.42;;;16.50;1.40;;;18.02;100.00;95632.27;645550;216;32146;-74
2022/06/02 07:39:26;;;;;;;3.08;1.85;;;16.30;1.40;;;18.01;100.00;95630.03;646284;216;31572;-74
2022/06/02 07:42:20;;;;;;;1.75;1.45;;;16.50;1.40;;;18.43;100.00;95629.30;646875;212;31550;-74
2022/06/02 07:45:28;;;;;;;1.90;1.60;;;16.90;1.40;;;18.86;100.00;95633.31;645253;216;32298;-74
2022/06/02 07:48:38;;;;;;;3.08;1.70;;;17.30;1.40;;;19.44;100.00;95640.95;646309;216;31557;-74
2022/06/02 07:51:50;;;;;;;1.93;1.83;;;17.80;1.40;;;18.91;100.00;95639.34;647445;216;31536;-74
2022/06/02 07:54:44;;;;;;;1.90;1.45;;;17.60;1.40;;;19.72;100.00;95633.56;618482;226;31850;-75
2022/06/02 07:57:34;;;;;;;2.40;1.70;;;17.80;1.40;;;19.67;100.00;95634.28;647146;216;31659;-75
2022/06/02 08:00:27;;;;;;;1.48;1.20;;;17.70;1.40;;;19.81;100.00;95631.95;646508;216;31546;-74
2022/06/02 08:03:20;;;;;;;1.60;1.50;;;17.50;1.40;;;19.81;100.00;95629.27;645743;216;31583;-74
2022/06/02 08:06:03;;;;;;;2.53;1.58;;;17.80;1.40;;;19.97;100.00;95635.38;645908;212;31597;-74
2022/06/02 08:08:49;;;;;;;1.90;1.10;;;18.10;1.40;;;19.82;100.00;95640.28;640286;212;31720;-77
2022/06/02 08:11:41;;;;;;;1.60;1.33;;;18.50;1.40;;;20.42;100.00;95639.59;647186;216;31701;-74
2022/06/02 08:14:38;;;;;;;1.62;1.52;;;18.70;1.40;;;20.39;100.00;95642.72;647132;216;32822;-74
2022/06/02 08:17:21;;;;;;;2.20;1.60;;;18.80;1.40;;;21.47;100.00;95639.52;645999;216;31535;-74
2022/06/02 08:20:16;;;;;;;2.05;1.85;;;19.20;1.40;;;21.96;100.00;95635.41;646821;216;31916;-74
2022/06/02 08:23:15;;;;;;;1.67;1.58;;;19.50;1.40;;;22.58;100.00;95637.25;631583;221;31772;-75
2022/06/02 08:29:16;;;;;;;3.25;1.60;;;20.10;1.40;;;22.98;100.00;95650.41;646612;212;42876;-74
2022/06/02 08:32:00;;;;;;;4.07;1.87;;;20.20;1.40;;;22.74;97.67;95657.08;646087;216;33577;-74
2022/06/02 08:38:50;;;;;;;1.95;1.20;;;19.70;1.40;;;22.46;100.00;95652.25;646422;216;31547;-74
2022/06/02 08:41:46;;;;;;;1.40;1.30;;;19.90;1.40;;;22.38;98.34;95651.59;645912;216;31535;-74
2022/06/02 08:47:31;;;;;;;2.12;1.45;;;19.80;1.40;;;22.74;100.00;95647.55;646952;212;31593;-75
2022/06/02 08:50:51;;;;;;;2.60;1.50;;;20.60;1.40;;;22.96;97.16;95647.28;647749;216;42884;-74
2022/06/02 08:54:13;;;;;;;2.35;1.92;;;21.10;1.40;;;23.17;92.02;95655.14;647396;212;31529;-74
2022/06/02 08:57:07;;;;;;;2.00;1.80;;;20.70;1.40;;;23.55;91.32;95662.83;645529;216;31973;-75
2022/06/02 08:59:55;;;;;;;2.30;1.80;;;20.50;1.40;;;23.16;93.55;95664.55;646726;212;32196;-74
2022/06/02 09:03:00;;;;;;;1.52;1.30;;;20.70;1.40;;;24.13;92.61;95651.20;646937;212;42450;-74
2022/06/02 09:05:59;;;;;;;1.87;1.45;;;21.50;1.40;;;24.28;89.65;95649.59;646813;216;32101;-74
2022/06/02 09:08:50;;;;;;;1.62;1.52;;;21.80;1.40;;;24.18;89.92;95648.78;644426;216;31888;-75
2022/06/02 09:12:10;;;;;;;1.98;1.60;;;21.80;1.40;;;23.71;98.08;95655.02;618837;226;31864;-74
2022/06/02 09:17:47;;;;;;;2.30;2.08;;;21.70;1.40;;;23.29;87.41;95661.94;646443;216;31680;-75
2022/06/02 09:20:56;;;;;;;1.92;1.60;;;21.70;1.40;;;23.98;92.68;95655.23;646979;216;31544;-75
2022/06/02 09:24:09;;;;;;;2.37;2.17;;;23.10;1.40;;;25.01;81.47;95653.46;647305;212;42187;-75
2022/06/02 09:26:59;;;;;;;2.28;1.90;;;22.30;1.40;;;24.46;83.52;95664.27;645191;216;31551;-76
2022/06/02 09:29:43;;;;;;;2.05;1.70;;;21.80;1.40;;;24.55;87.94;95664.81;647104;216;31609;-75
2022/06/02 09:32:30;;;;;;;2.97;1.85;;;21.50;1.40;;;24.40;86.45;95660.36;647582;216;42330;-75
2022/06/02 09:35:52;;;;;;;2.20;2.00;;;22.20;1.40;;;24.94;84.55;95657.84;646757;216;32507;-75
2022/06/02 09:38:42;;;;;;;2.00;1.80;;;22.80;1.40;;;26.11;79.32;95662.28;645869;216;31760;-75
2022/06/02 09:41:57;;;;;;;2.30;2.10;;;23.80;1.40;;;26.07;78.11;95667.85;647822;216;31828;-75
2022/06/02 09:44:48;;;;;;;2.30;1.80;;;23.00;1.40;;;26.07;79.70;95668.45;647396;216;31562;-76
2022/06/02 09:47:52;;;;;;;2.70;2.00;;;23.10;1.40;;;26.16;80.19;95661.84;646894;216;31505;-75
2022/06/02 09:50:53;;;;;;;4.03;2.30;;;23.40;1.40;;;26.97;76.47;95658.41;646547;216;31547;-75
2022/06/02 09:58:28;;;;;;;5.78;2.40;;;23.40;1.40;;;26.37;76.86;95657.57;641982;216;31556;-75
2022/06/02 10:01:18;;;;;;;3.30;2.40;;;24.20;1.40;;;27.09;69.01;95655.08;646155;216;32436;-75
2022/06/02 10:07:05;;;;;;;5.50;2.22;;;23.00;1.40;;;27.16;73.13;95656.36;646637;212;31579;-76
2022/06/02 10:10:12;;;;;;;2.60;2.40;;;23.70;1.40;;;28.03;68.75;95654.23;613164;226;32186;-76
2022/06/02 10:13:03;;;;;;;2.40;2.20;;;26.30;1.40;;;29.61;60.37;95643.67;645966;216;31562;-76
2022/06/02 10:15:47;;;;;;;3.00;2.70;;;26.70;1.40;;;29.33;59.12;95641.19;618817;226;32020;-76
2022/06/02 10:18:56;;;;;;;2.50;2.30;;;27.60;1.40;;;31.53;62.58;95638.06;647158;216;31705;-76
2022/06/02 10:21:43;;;;;;;2.28;1.90;;;29.40;1.40;;;33.97;53.34;95630.18;646504;216;31540;-76
2022/06/02 10:24:28;;;;;;;3.70;2.87;;;29.80;1.40;;;31.74;54.53;95635.52;646639;216;31873;-74
2022/06/02 10:27:28;;;;;;;3.30;3.00;;;28.60;1.40;;;34.11;49.17;95634.98;646779;216;42371;-76
2022/06/02 10:30:49;;;;;;;3.00;2.70;;;29.20;1.40;;;33.71;51.47;95630.73;618477;222;32564;-74
2022/06/02 10:38:51;;;;;;;2.72;2.50;;;29.70;1.40;;;34.68;43.37;95627.95;646496;216;31590;-74
2022/06/02 10:41:43;;;;;;;3.08;2.78;;;29.90;1.40;;;33.37;43.10;95629.78;648045;216;31773;-74
2022/06/02 10:44:51;;;;;;;2.53;2.33;;;28.80;1.40;;;32.85;44.22;95632.82;632881;217;32804;-73
2022/06/02 10:47:54;;;;;;;2.80;2.60;;;26.00;1.40;;;30.66;51.31;95635.20;646230;216;42293;-74
2022/06/02 10:50:53;;;;;;;3.00;2.70;;;24.40;1.40;;;30.63;50.68;95642.22;647077;216;31898;-73
2022/06/02 10:53:48;;;;;;;5.03;2.78;;;26.00;1.40;;;31.38;53.07;95639.66;646969;212;32168;-74
2022/06/02 10:56:45;;;;;;;3.10;2.80;;;26.90;1.40;;;30.88;48.49;95637.17;645576;216;32779;-75
2022/06/02 10:59:37;;;;;;;3.97;2.80;;;26.30;1.40;;;32.96;46.98;95622.27;620237;226;42730;-73
2022/06/02 11:05:23;;;;;;;3.90;2.83;;;27.70;1.40;;;33.23;43.99;95625.16;619199;222;32148;-74
2022/06/02 11:10:58;;;;;;;3.12;2.50;;;25.80;1.40;;;30.95;47.48;95630.09;646096;216;31692;-75
2022/06/02 11:13:54;;;;;;;3.10;2.30;;;25.70;1.40;;;29.14;52.93;95632.28;651428;216;42351;-75
2022/06/02 11:16:54;;;;;;;3.10;2.80;;;24.50;1.40;;;29.79;47.96;95626.99;649474;216;31561;-75
2022/06/02 11:20:07;;;;;;;5.20;2.70;;;24.30;1.40;;;28.78;50.94;95627.30;648834;216;31754;-73
2022/06/02 11:23:15;;;;;;;3.30;3.00;;;24.10;1.40;;;26.92;57.41;95631.58;649128;216;31664;-75
2022/06/02 11:26:08;;;;;;;3.00;2.70;;;24.20;1.40;;;29.08;54.53;95616.59;644434;216;31683;-75
2022/06/02 11:29:05;;;;;;;3.58;2.90;;;26.00;1.40;;;30.01;51.33;95613.55;621510;222;31916;-76
2022/06/02 11:32:01;;;;;;;2.40;2.20;;;26.10;1.40;;;32.03;50.55;95603.73;617361;226;32302;-73
2022/06/02 11:35:58;;;;;;;2.70;2.50;;;28.10;1.40;;;33.15;43.40;95599.10;647988;212;32176;-75
2022/06/02 11:39:14;;;;;;;2.67;2.47;;;28.60;1.40;;;35.02;41.75;95595.24;650601;216;42200;-74
2022/06/02 11:42:05;;;;;;;2.90;2.60;;;28.30;1.40;;;32.29;47.23;95605.33;623458;226;31874;-75
2022/06/02 11:45:03;;;;;;;2.60;2.40;;;26.80;1.40;;;31.25;45.78;95603.13;647850;212;31913;-75
2022/06/02 11:48:05;;;;;;;4.60;2.53;;;26.60;99.90;;;31.11;48.64;95599.59;621492;222;32215;-74
2022/06/02 11:53:44;;;;;;;5.30;2.62;;;25.40;1.40;;;28.52;49.46;95611.63;615689;224;31863;-73
2022/06/02 11:56:43;;;;;;;2.95;2.65;;;23.70;1.40;;;28.39;50.90;95614.91;644527;216;31551;-75
2022/06/02 12:02:20;;;;;;;3.67;2.53;;;22.20;1.40;;;25.38;61.03;95622.39;649086;216;31742;-75
2022/06/02 12:05:24;;;;;;;2.50;2.30;;;22.20;1.40;;;25.96;59.06;95621.66;651596;216;31531;-75
2022/06/02 12:08:44;;;;;;;2.35;2.15;;;22.30;1.40;;;25.20;63.25;95623.95;645837;216;31535;-76
2022/06/02 12:11:54;;;;;;;2.17;1.73;;;22.20;1.40;;;26.29;61.23;95615.38;648138;216;31671;-75
2022/06/02 12:15:14;;;;;;;4.28;2.05;;;23.10;1.40;;;26.92;55.04;95612.11;649542;216;31688;-76
2022/06/02 12:18:07;;;;;;;4.12;2.22;;;23.20;1.40;;;25.82;56.36;95613.75;647061;216;31560;-75
2022/06/02 12:21:13;;;;;;;2.10;1.90;;;22.70;1.40;;;26.24;57.07;95614.86;649621;216;31511;-75
2022/06/02 12:26:45;;;;;;;2.00;1.85;;;22.50;1.40;;;26.07;59.67;95624.99;643698;216;31545;-76
2022/06/02 12:29:37;;;;;;;2.20;1.70;;;21.90;1.40;;;25.43;59.53;95631.70;618614;226;32003;-76
2022/06/02 12:32:47;;;;;;;2.97;2.10;;;21.60;1.40;;;25.08;59.32;95632.30;646876;216;42713;-75
2022/06/02 12:36:23;;;;;;;2.30;1.90;;;21.60;1.40;;;25.04;61.36;95633.52;647299;212;31584;-75
2022/06/02 12:39:16;;;;;;;2.00;1.65;;;21.70;1.40;;;24.42;61.25;95637.62;649924;212;31572;-75
2022/06/02 12:42:13;;;;;;;1.52;1.40;;;21.30;1.40;;;24.20;64.23;95630.88;648262;216;31541;-75
2022/06/02 12:48:28;;;;;;;2.33;2.12;;;21.40;1.40;;;24.62;72.80;95610.00;643522;216;31686;-75
2022/06/02 12:51:26;;;;;;;2.62;1.62;;;22.70;1.40;;;27.65;63.94;95593.48;654229;216;31916;-74
2022/06/02 12:54:21;;;;;;;3.50;1.90;;;25.50;1.40;;;30.39;51.26;95584.27;648709;212;31524;-75
2022/06/02 12:57:19;;;;;;;3.47;2.05;;;26.40;1.40;;;33.31;46.17;95581.84;647004;216;31567;-75
2022/06/02 13:00:13;;;;;;;2.22;2.03;;;26.50;1.40;;;32.18;46.87;95585.13;650693;216;31579;-75
2022/06/02 13:08:24;;;;;;;2.15;1.77;;;27.50;1.40;;;34.81;41.94;95564.80;645467;216;31626;-76
2022/06/02 13:11:49;;;;;;;3.37;2.15;;;27.60;1.40;;;34.64;43.90;95564.66;651513;216;31696;-73
2022/06/02 13:14:53;;;;;;;2.67;2.37;;;26.50;1.40;;;32.90;44.35;95567.44;647184;216;31780;-74
2022/06/02 13:18:14;;;;;;;2.12;1.95;;;26.00;1.40;;;29.68;48.15;95574.72;648532;216;31675;-74
2022/06/02 13:21:35;;;;;;;3.20;2.30;;;24.80;1.40;;;29.28;49.62;95580.03;645222;213;34173;-74
2022/06/02 13:24:38;;;;;;;2.40;1.83;;;25.90;1.40;;;32.60;49.25;95568.47;649970;212;31633;-75
2022/06/02 13:27:31;;;;;;;2.05;1.95;;;27.40;1.40;;;33.82;43.97;95566.88;622255;226;31891;-76
2022/06/02 13:30:22;;;;;;;2.60;2.20;;;27.50;1.40;;;33.63;40.30;95559.29;651512;216;31614;-73
2022/06/02 13:36:13;;;;;;;3.12;2.42;;;26.30;1.40;;;30.16;48.79;95565.77;651254;216;31727;-74
2022/06/02 13:39:26;;;;;;;2.20;2.00;;;25.80;1.40;;;31.19;48.12;95566.89;647124;216;32008;-73
2022/06/02 13:42:14;;;;;;;3.58;1.90;;;26.40;1.40;;;31.18;47.44;95573.53;647493;216;43022;-76
2022/06/02 13:45:15;;;;;;;2.45;2.25;;;25.60;1.40;;;29.91;47.55;95574.78;650843;212;31538;-75
2022/06/02 13:48:11;;;;;;;2.80;2.10;;;25.10;1.40;;;30.16;46.46;95581.51;619179;226;32125;-76
2022/06/02 14:00:12;;;;;;;4.03;2.65;;;24.90;1.40;;;29.51;47.29;95575.91;619109;226;32085;-75
2022/06/02 14:03:07;;;;;;;2.50;2.30;;;25.40;1.40;;;30.91;44.98;95573.25;649300;216;31556;-76
2022/06/02 14:06:05;;;;;;;3.28;2.30;;;25.80;1.40;;;30.36;45.06;95567.11;642646;218;31620;-74
2022/06/02 14:08:59;;;;;;;2.30;2.10;;;25.90;1.40;;;31.96;44.74;95567.45;644016;216;31707;-77
2022/06/02 14:11:49;;;;;;;3.60;2.20;;;27.40;1.40;;;33.75;44.06;95559.02;646587;216;32138;-76
2022/06/02 14:14:39;;;;;;;3.35;2.60;;;28.20;1.40;;;34.04;39.47;95553.51;650244;212;31859;-74
2022/06/02 14:17:31;;;;;;;2.50;2.30;;;28.30;1.40;;;35.55;39.20;95552.51;618429;222;32125;-73
2022/06/02 14:20:18;;;;;;;2.70;2.40;;;28.20;1.40;;;36.36;40.07;95546.41;652404;216;31627;-74
2022/06/02 14:23:07;;;;;;;3.50;2.70;;;29.40;1.40;;;35.32;42.36;95551.63;620880;222;31978;-74
2022/06/02 14:26:16;;;;;;;2.60;2.40;;;28.50;1.40;;;34.89;37.54;95546.99;646593;212;31561;-75
2022/06/02 14:29:15;;;;;;;5.82;2.70;;;26.40;1.40;;;33.26;42.33;95549.70;647215;216;32101;-75
2022/06/02 14:32:03;;;;;;;5.12;1.80;;;25.60;1.40;;;32.13;41.95;95555.92;652063;216;31501;-75
2022/06/02 14:38:44;;;;;;;2.08;1.98;;;22.50;1.40;;;25.01;67.37;95580.47;648088;212;31611;-75
2022/06/02 14:41:27;;;;;;;2.33;2.13;;;22.00;1.40;;;23.49;73.95;95580.74;646231;216;31635;-76
2022/06/02 14:44:24;;;;;;;2.00;1.90;;;21.70;1.40;;;23.63;74.03;95591.62;649175;212;31523;-74
2022/06/02 14:47:41;;;;;;;1.90;1.80;;;21.60;99.90;;;22.99;79.10;95592.93;616885;226;31963;-76
2022/06/02 14:50:43;;;;;;;1.73;1.50;;;21.50;1.40;;;23.00;82.11;95596.19;644543;216;31511;-74
2022/06/02 14:53:47;;;;;;;1.60;1.50;;;21.50;1.40;;;23.20;79.59;95597.50;647982;216;42200;-74
2022/06/02 14:56:39;;;;;;;2.20;1.50;;;21.40;1.40;;;23.13;81.46;95597.73;646275;216;31635;-75
2022/06/02 14:59:27;;;;;;;1.90;1.70;;;21.60;1.40;;;23.83;79.71;95592.00;647390;216;31619;-75
2022/06/02 15:02:49;;;;;;;2.80;2.40;;;22.00;1.40;;;23.73;74.75;95592.06;646508;215;31532;-75
2022/06/02 15:05:53;;;;;;;2.10;1.90;;;22.00;1.40;;;23.47;77.63;95588.84;618263;226;31980;-75
2022/06/02 15:08:47;;;;;;;1.85;1.40;;;21.80;1.40;;;24.14;72.37;95587.98;644026;212;31905;-75